Thunder radar more information blitzortung!


Löydät sääaseman tiedot myös:

European Weather Network

Finland Weather Exchange

Weather Underground

AWEKAS



Weather Underground säähistoriasivu

Päivittäin yhteenveto Tammikuu 6, 2017 Yksiköt:  Metriset    Englantilaiset   Molemmat
« Edellinen Päivä
Seuraava Päivä »
Päivittäin Viikoittain Kuukausittain Vuosittain Mukautettu
  Korkea: Matala: Keskiarvo:
Lämpötila: -17.8 °C -30.3 °C -26.1 °C
Kastepiste: -17.8 °C -31.3 °C -26.9 °C
Kosteus: Humidity % 84 % 88 %
Tuulen nopeus: 0 km/h 0 km/h 2.9 km/h
Tuulenpuuska: 0 km/h - -
Tuuli:- - SSW
Ilmanpaine: 0 hPa 34476.3 hPa -
Sade: 0 mm    
Historical Graphs
 
 
Taulukkotiedot Tammikuu 6, 2017
Aika Lämpötila Kastepiste Ilmanpaine Tuuli Tuulen nopeus Tuulenpuuska Kosteus Sademäärä (tunneittain)
-17.8 °C -17.8 °C 0 hPa Calm     Humidity % 0 mm
00:00 -29.9 °C -31 °C 35048.5 hPa Calm     85 % 0 mm
00:15 -30.1 °C -31.1 °C 35048.5 hPa Calm     84 % 0 mm
00:30 -30.1 °C -31.1 °C 35048.5 hPa Calm     85 % 0 mm
00:45 -30.1 °C -31.1 °C 35048.5 hPa Calm     85 % 0 mm
01:00 -30.1 °C -31.1 °C 35048.5 hPa Calm     85 % 0 mm
01:15 -30.1 °C -31.2 °C 35058.6 hPa Calm     85 % 0 mm
01:30 -30.2 °C -31.3 °C 35058.6 hPa Calm     84 % 0 mm
01:45 -30.2 °C -31.3 °C 35048.5 hPa Calm     84 % 0 mm
02:00 -30.3 °C -31.3 °C 35048.5 hPa Calm     85 % 0 mm
02:15 -30.2 °C -31.2 °C 35048.5 hPa Calm     85 % 0 mm
02:30 -30.2 °C -31.2 °C 35058.6 hPa Calm     85 % 0 mm
02:45 -30.1 °C -31.1 °C 35048.5 hPa Calm     85 % 0 mm
03:00 -30.1 °C -31.1 °C 35058.6 hPa Calm     85 % 0 mm
03:15 -30.1 °C -31.2 °C 35058.6 hPa Calm     85 % 0 mm
03:30 -30.1 °C -31.2 °C 35048.5 hPa Calm     85 % 0 mm
03:45 -30.1 °C -31.2 °C 35048.5 hPa Calm     85 % 0 mm
04:00 -30.2 °C -31.2 °C 35048.5 hPa Calm     85 % 0 mm
04:15 -30.2 °C -31.2 °C 35048.5 hPa Calm     85 % 0 mm
04:30 -30.2 °C -31.2 °C 35048.5 hPa Calm     85 % 0 mm
04:45 -30.1 °C -31 °C 35048.5 hPa Calm     86 % 0 mm
05:00 -29.9 °C -30.8 °C 35038.3 hPa Calm     86 % 0 mm
05:15 -29.7 °C -30.7 °C 35038.3 hPa Calm     86 % 0 mm
05:30 -29.6 °C -30.6 °C 35038.3 hPa Calm     86 % 0 mm
05:45 -29.4 °C -30.3 °C 35038.3 hPa Calm   2.6 km/h 87 % 0 mm
06:00 -29.3 °C -30.2 °C 35038.3 hPa Calm     87 % 0 mm
06:15 -29.1 °C -30 °C 35038.3 hPa Calm     87 % 0 mm
06:30 -29 °C -29.9 °C 35024.8 hPa Calm     87 % 0 mm
06:45 -29 °C -29.9 °C 35024.8 hPa Calm     86 % 0 mm
07:00 -29.1 °C -30.2 °C 35024.8 hPa Calm     85 % 0 mm
07:15 -29.3 °C -30.4 °C 35024.8 hPa Calm     85 % 0 mm
07:30 -29.4 °C -30.4 °C 35024.8 hPa Calm     85 % 0 mm
07:45 -29.6 °C -30.6 °C 35014.6 hPa Calm     85 % 0 mm
08:00 -29.7 °C -30.7 °C 35014.6 hPa Calm     85 % 0 mm
08:15 -29.7 °C -30.7 °C 35001.1 hPa Calm     85 % 0 mm
08:30 -29.7 °C -30.7 °C 35001.1 hPa Calm     85 % 0 mm
08:45 -29.7 °C -30.7 °C 35001.1 hPa Calm     86 % 0 mm
09:00 -29.7 °C -30.7 °C 35001.1 hPa Calm     85 % 0 mm
09:15 -29.8 °C -30.8 °C 35001.1 hPa Calm     85 % 0 mm
09:30 -29.7 °C -30.7 °C 35001.1 hPa Calm     86 % 0 mm
09:45 -29.6 °C -30.6 °C 35001.1 hPa Calm     86 % 0 mm
10:00 -29.5 °C -30.4 °C 35001.1 hPa Calm     86 % 0 mm
10:15 -29.2 °C -30.1 °C 35001.1 hPa Calm     88 % 0 mm
10:30 -29 °C -29.8 °C 34990.9 hPa Calm     88 % 0 mm
10:45 -28.6 °C -29.3 °C 34990.9 hPa Calm     89 % 0 mm
11:00 -28.1 °C -28.7 °C 34980.8 hPa Calm   2.6 km/h 90 % 0 mm
11:15 -27.3 °C -27.8 °C 34980.8 hPa Calm   10.3 km/h 92 % 0 mm
11:30 -26.2 °C -26.7 °C 34967.2 hPa Calm   5.1 km/h 93 % 0 mm
11:45 -25.4 °C -25.9 °C 34967.2 hPa Calm   7.7 km/h 92 % 0 mm
12:00 -25.1 °C -25.6 °C 34957.1 hPa SW 2.6 km/h 7.7 km/h 92 % 0 mm
12:15 -24.9 °C -25.6 °C 34957.1 hPa Calm   5.1 km/h 91 % 0 mm
12:30 -24.8 °C -25.5 °C 34946.9 hPa Calm   5.1 km/h 91 % 0 mm
12:45 -24.8 °C -25.6 °C 34933.4 hPa Calm   5.1 km/h 90 % 0 mm
13:00 -24.8 °C -25.4 °C 34923.2 hPa Calm   5.1 km/h 91 % 0 mm
13:15 -24.3 °C -24.9 °C 34923.2 hPa South 2.6 km/h 10.3 km/h 92 % 0 mm
13:30 -24.2 °C -24.8 °C 34909.7 hPa SSE 2.6 km/h 10.3 km/h 91 % 0 mm
13:45 -24.1 °C -24.8 °C 34899.5 hPa South 2.6 km/h 15.6 km/h 91 % 0 mm
14:00 -24.1 °C -24.7 °C 34889.3 hPa SSW 2.6 km/h 10.3 km/h 91 % 0 mm
14:15 -24.1 °C -24.7 °C 34875.8 hPa South 2.6 km/h 10.3 km/h 91 % 0 mm
14:30 -24.1 °C -24.8 °C 34875.8 hPa South 2.6 km/h 15.6 km/h 90 % 0 mm
14:45 -24.1 °C -24.8 °C 34865.6 hPa Calm   12.9 km/h 90 % 0 mm
15:00 -24.2 °C -24.9 °C 34865.6 hPa SSW 2.6 km/h 10.3 km/h 90 % 0 mm
15:15 -24.2 °C -24.9 °C 34852.1 hPa Calm   10.3 km/h 90 % 0 mm
15:30 -24 °C -24.7 °C 34841.9 hPa South 5.1 km/h 15.6 km/h 91 % 0 mm
15:45 -23.9 °C -24.7 °C 34831.8 hPa SSW 2.6 km/h 12.9 km/h 90 % 0 mm
16:00 -23.9 °C -24.7 °C 34831.8 hPa South 2.6 km/h 15.6 km/h 90 % 0 mm
16:15 -23.8 °C -24.6 °C 34818.2 hPa SSW 2.6 km/h 15.6 km/h 90 % 0 mm
16:30 -23.7 °C -24.3 °C 34808.1 hPa SSW 5.1 km/h 15.6 km/h 91 % 0 mm
16:45 -23.6 °C -24.2 °C 34797.9 hPa SSW 5.1 km/h 15.6 km/h 91 % 0 mm
17:00 -23.5 °C -24.2 °C 34784.4 hPa SSW 5.1 km/h 15.6 km/h 91 % 0 mm
17:15 -23.4 °C -24.1 °C 34784.4 hPa South 5.1 km/h 10.3 km/h 91 % 0 mm
17:30 -23.1 °C -23.7 °C 34784.4 hPa SSW 5.1 km/h 15.6 km/h 92 % 0 mm
17:45 -22.9 °C -23.6 °C 34774.2 hPa SSW 5.1 km/h 18.2 km/h 91 % 0 mm
18:00 -22.8 °C -23.4 °C 34760.7 hPa SSW 5.1 km/h 15.6 km/h 91 % 0 mm
18:15 -22.7 °C -23.3 °C 34750.5 hPa SSW 7.7 km/h 18.2 km/h 91 % 0 mm
18:30 -22.7 °C -23.3 °C 34750.5 hPa SSW 5.1 km/h 23.3 km/h 91 % 0 mm
18:45 -22.6 °C -23.2 °C 34740.4 hPa South 7.7 km/h 18.2 km/h 91 % 0 mm
19:00 -22.4 °C -23.1 °C 34716.7 hPa SSW 7.7 km/h 15.6 km/h 91 % 0 mm
19:15 -22.3 °C -23 °C 34703.1 hPa SSW 10.3 km/h 23.3 km/h 91 % 0 mm
19:30 -22.3 °C -22.9 °C 34693 hPa South 5.1 km/h 20.8 km/h 91 % 0 mm
19:45 -22.1 °C -22.8 °C 34682.8 hPa SSW 10.3 km/h 31.1 km/h 91 % 0 mm
20:00 -22 °C -22.6 °C 34669.3 hPa SSW 7.7 km/h 23.3 km/h 92 % 0 mm
20:15 -21.9 °C -22.5 °C 34669.3 hPa South 10.3 km/h 25.9 km/h 92 % 0 mm
20:30 -21.8 °C -22.6 °C 34659.1 hPa South 10.3 km/h 25.9 km/h 91 % 0 mm
20:45 -21.8 °C -22.4 °C 34645.6 hPa SSW 10.3 km/h 23.3 km/h 92 % 0 mm
21:00 -21.8 °C -22.3 °C 34635.4 hPa South 10.3 km/h 23.3 km/h 92 % 0 mm
21:15 -21.7 °C -22.3 °C 34601.5 hPa SSW 12.9 km/h 25.9 km/h 92 % 0 mm
21:30 -21.7 °C -22.3 °C 34591.4 hPa South 10.3 km/h 25.9 km/h 92 % 0 mm
21:45 -21.6 °C -22.2 °C 34577.8 hPa SSW 10.3 km/h 28.5 km/h 92 % 0 mm
22:00 -21.5 °C -22.1 °C 34567.7 hPa South 10.3 km/h 25.9 km/h 92 % 0 mm
22:15 -21.3 °C -21.9 °C 34554.1 hPa South 10.3 km/h 25.9 km/h 92 % 0 mm
22:30 -21.2 °C -21.7 °C 34544 hPa South 7.7 km/h 25.9 km/h 92 % 0 mm
22:45 -21.1 °C -21.7 °C 34533.8 hPa South 7.7 km/h 23.3 km/h 92 % 0 mm
23:00 -21 °C -21.7 °C 34520.3 hPa South 10.3 km/h 28.5 km/h 91 % 0 mm
23:15 -21.1 °C -21.7 °C 34510.1 hPa South 10.3 km/h 28.5 km/h 92 % 0 mm
23:30 -21 °C -21.6 °C 34486.4 hPa SSW 10.3 km/h 23.3 km/h 92 % 0 mm
23:45 -20.8 °C -21.3 °C 34476.3 hPa SSW 10.3 km/h 31.1 km/h 93 % 0 mm
Esan sääasema
Terveisin Weather Underground - 2.75 mb

Alkuperäinen skripti  Jim McMurry - jmcmurry@mwt.net Sovitettu myös templatelle  Wim van der Kuil - Leuven-Template.eu

Laitteet joita käytämme:

Sääasema
Davis VP2

Sääasemaohjelma
Cumulus

Sääaseman tietokone
Asus EeePC

Palveluntarjoaja
Suncomet

Davis VP2

Cumulus

Asus EeePC

Suncomet